Time;durP1;ratioP1;P1;durP2;ratioP2;P2;SDS_P1;SDS_P2;PMS_P1;PMS_P2;Temp;Humidity;BMP_temperature;BMP_pressure;BME280_temperature;BME280_humidity;BME280_pressure;Samples;Min_cycle;Max_cycle;Signal;HPM_P1;HPM_P2
2021/03/27 00:02:01;;;;;;;;;;;8.30;91.60;;;;;;5075033;28;19930;-76
2021/03/27 00:04:29;;;;;;;;;;;8.30;92.10;;;;;;5074710;28;19916;-76
2021/03/27 00:06:56;;;;;;;;;;;8.30;92.40;;;;;;5077692;28;19920;-77
2021/03/27 00:09:40;;;;;;;;;;;8.20;92.00;;;;;;5098506;27;20316;-76
2021/03/27 00:12:06;;;;;;;;;;;8.20;92.30;;;;;;5085036;28;20797;-77
2021/03/27 00:14:52;;;;;;;;;;;8.10;92.90;;;;;;5074691;28;19931;-76
2021/03/27 00:17:41;;;;;;;;;;;8.10;92.90;;;;;;5074361;28;19966;-77
2021/03/27 00:20:10;;;;;;;;;;;8.10;93.70;;;;;;5075889;28;19921;-76
2021/03/27 00:22:43;;;;;;;;;;;8.10;94.00;;;;;;5074596;28;19921;-76
2021/03/27 00:25:14;;;;;;;;;;;8.00;95.20;;;;;;5087192;28;19931;-76
2021/03/27 00:28:00;;;;;;;;;;;8.00;94.30;;;;;;5088397;28;20361;-77
2021/03/27 00:30:27;;;;;;;;;;;8.00;94.90;;;;;;5080925;28;19920;-76
2021/03/27 00:32:56;;;;;;;;;;;8.00;94.90;;;;;;5074279;28;19920;-77
2021/03/27 00:35:27;;;;;;;;;;;8.00;95.60;;;;;;5077395;28;20028;-77
2021/03/27 00:37:55;;;;;;;;;;;8.00;97.80;;;;;;5078457;28;19920;-77
2021/03/27 00:40:21;;;;;;;;;;;8.00;96.50;;;;;;5078430;28;20035;-77
2021/03/27 00:43:03;;;;;;;;;;;8.00;97.00;;;;;;5078416;28;20794;-76
2021/03/27 00:45:33;;;;;;;;;;;8.00;97.80;;;;;;5077333;28;19966;-77
2021/03/27 00:48:04;;;;;;;;;;;8.00;97.70;;;;;;5066431;28;20547;-77
2021/03/27 00:50:30;;;;;;;;;;;8.00;97.00;;;;;;5094544;27;19926;-77
2021/03/27 00:52:57;;;;;;;;;;;8.00;98.30;;;;;;5080855;28;21518;-76
2021/03/27 00:55:26;;;;;;;;;;;8.10;99.70;;;;;;5076903;28;19927;-76
2021/03/27 00:57:57;;;;;;;;;;;8.10;99.90;;;;;;5080368;28;20431;-77
2021/03/27 01:00:44;;;;;;;;;;;8.10;99.90;;;;;;5072247;28;19955;-76
2021/03/27 01:03:17;;;;;;;;;;;8.10;99.90;;;;;;5078585;28;19920;-77
2021/03/27 01:05:43;;;;;;;;;;;8.20;99.90;;;;;;5081037;28;19924;-77
2021/03/27 01:08:09;;;;;;;;;;;8.20;99.90;;;;;;5076907;28;19928;-77
2021/03/27 01:10:36;;;;;;;;;;;8.30;99.90;;;;;;5077179;28;19916;-77
2021/03/27 01:13:03;;;;;;;;;;;8.30;98.70;;;;;;5077314;28;19916;-76
2021/03/27 01:15:31;;;;;;;;;;;8.30;99.90;;;;;;5089674;28;19919;-76
2021/03/27 01:17:59;;;;;;;;;;;8.30;99.90;;;;;;5075951;28;19925;-77
2021/03/27 01:20:26;;;;;;;;;;;8.40;99.90;;;;;;5093163;27;19960;-77
2021/03/27 01:22:52;;;;;;;;;;;8.40;99.90;;;;;;5078732;28;19920;-77
2021/03/27 01:25:22;;;;;;;;;;;8.40;99.90;;;;;;5093479;27;19930;-77
2021/03/27 01:28:00;;;;;;;;;;;8.50;99.90;;;;;;5076478;28;19924;-77
2021/03/27 01:30:25;;;;;;;;;;;8.50;99.90;;;;;;5079827;28;20400;-77
2021/03/27 01:32:56;;;;;;;;;;;8.60;99.90;;;;;;5078701;28;20548;-77
2021/03/27 01:35:32;;;;;;;;;;;8.60;99.90;;;;;;5078346;28;19920;-77
2021/03/27 01:38:10;;;;;;;;;;;8.70;99.90;;;;;;5079912;28;19920;-77
2021/03/27 01:40:35;;;;;;;;;;;8.80;99.90;;;;;;5076672;28;19920;-77
2021/03/27 01:43:07;;;;;;;;;;;8.80;99.90;;;;;;5077953;28;19928;-77
2021/03/27 01:45:32;;;;;;;;;;;8.90;99.90;;;;;;5076645;28;20002;-77
2021/03/27 01:47:58;;;;;;;;;;;9.00;99.90;;;;;;5076752;28;19930;-77
2021/03/27 01:50:27;;;;;;;;;;;9.00;99.90;;;;;;5077976;28;19920;-77
2021/03/27 01:52:59;;;;;;;;;;;9.20;99.90;;;;;;5078763;28;19912;-77
2021/03/27 01:55:43;;;;;;;;;;;9.20;99.90;;;;;;5094531;28;19912;-77
2021/03/27 01:58:28;;;;;;;;;;;9.30;99.90;;;;;;5083959;28;19923;-77
2021/03/27 02:01:05;;;;;;;;;;;9.40;99.90;;;;;;5074450;28;19965;-77
2021/03/27 02:03:35;;;;;;;;;;;9.50;99.90;;;;;;5067965;28;19920;-77
2021/03/27 02:06:03;;;;;;;;;;;9.60;99.90;;;;;;5075983;28;19982;-77
2021/03/27 02:08:49;;;;;;;;;;;9.60;99.90;;;;;;5061420;28;20345;-77
2021/03/27 02:11:21;;;;;;;;;;;9.70;99.70;;;;;;5077589;28;19920;-77
2021/03/27 02:13:57;;;;;;;;;;;9.70;99.90;;;;;;5088084;28;20015;-77
2021/03/27 02:16:38;;;;;;;;;;;9.80;99.40;;;;;;5088862;28;20044;-77
2021/03/27 02:19:08;;;;;;;;;;;9.90;99.90;;;;;;5076890;28;19929;-77
2021/03/27 02:21:53;;;;;;;;;;;9.90;99.20;;;;;;5063864;28;19974;-77
2021/03/27 02:24:33;;;;;;;;;;;10.00;97.30;;;;;;5076744;28;19916;-77
2021/03/27 02:27:05;;;;;;;;;;;10.00;98.90;;;;;;5092396;28;19916;-77
2021/03/27 02:29:33;;;;;;;;;;;10.00;98.30;;;;;;5088648;28;19916;-77
2021/03/27 02:32:01;;;;;;;;;;;10.10;97.80;;;;;;5075651;28;19920;-77
2021/03/27 02:34:39;;;;;;;;;;;10.10;98.20;;;;;;5078212;28;19916;-76
2021/03/27 02:37:07;;;;;;;;;;;10.10;97.80;;;;;;5076501;28;19920;-77
2021/03/27 02:39:39;;;;;;;;;;;10.10;97.60;;;;;;5077342;28;19966;-77
2021/03/27 02:42:13;;;;;;;;;;;10.10;96.00;;;;;;5077817;28;19930;-77
2021/03/27 02:44:41;;;;;;;;;;;10.10;98.30;;;;;;5079069;28;19920;-77
2021/03/27 02:47:06;;;;;;;;;;;10.10;98.60;;;;;;5075827;28;19924;-77
2021/03/27 02:49:35;;;;;;;;;;;10.10;98.50;;;;;;5079509;28;19923;-78
2021/03/27 02:52:11;;;;;;;;;;;10.10;99.90;;;;;;5077194;28;19974;-77
2021/03/27 02:54:39;;;;;;;;;;;10.10;99.90;;;;;;5092538;27;19916;-77
2021/03/27 02:57:34;;;;;;;;;;;10.10;99.90;;;;;;5076096;28;19920;-77
2021/03/27 03:00:09;;;;;;;;;;;10.10;99.90;;;;;;5039619;28;19924;-76
2021/03/27 03:02:44;;;;;;;;;;;10.20;99.90;;;;;;5092197;28;19958;-77
2021/03/27 03:05:12;;;;;;;;;;;10.10;99.90;;;;;;5075925;28;19920;-76
2021/03/27 03:07:56;;;;;;;;;;;10.10;99.90;;;;;;5074791;28;20690;-76
2021/03/27 03:10:28;;;;;;;;;;;10.10;99.90;;;;;;5077303;28;20174;-78
2021/03/27 03:13:12;;;;;;;;;;;10.00;99.40;;;;;;5078743;28;19943;-78
2021/03/27 03:15:56;;;;;;;;;;;9.90;98.60;;;;;;5076258;28;19985;-77
2021/03/27 03:18:30;;;;;;;;;;;9.80;99.90;;;;;;5079845;28;19916;-78
2021/03/27 03:21:03;;;;;;;;;;;9.60;99.90;;;;;;5074802;28;19930;-79
2021/03/27 03:23:29;;;;;;;;;;;9.40;99.90;;;;;;5074108;28;20058;-78
2021/03/27 03:26:17;;;;;;;;;;;9.20;99.90;;;;;;5076913;28;19916;-79
2021/03/27 03:28:46;;;;;;;;;;;9.10;99.90;;;;;;5067429;28;19927;-79
2021/03/27 03:31:14;;;;;;;;;;;9.00;99.90;;;;;;5074094;28;19964;-79
2021/03/27 03:33:52;;;;;;;;;;;9.00;99.90;;;;;;5077769;28;19945;-79
2021/03/27 03:36:36;;;;;;;;;;;8.90;99.90;;;;;;5075905;28;20452;-79
2021/03/27 03:39:13;;;;;;;;;;;8.70;99.90;;;;;;5075546;28;19935;-78
2021/03/27 03:41:41;;;;;;;;;;;8.60;99.90;;;;;;5075427;28;20503;-78
2021/03/27 03:44:22;;;;;;;;;;;8.50;99.90;;;;;;5074114;28;19943;-79
2021/03/27 03:47:02;;;;;;;;;;;8.50;99.90;;;;;;5086114;28;21688;-79
2021/03/27 03:49:34;;;;;;;;;;;8.40;99.90;;;;;;5075778;28;20003;-78
2021/03/27 03:52:18;;;;;;;;;;;8.20;99.90;;;;;;5076050;28;19962;-78
2021/03/27 03:54:51;;;;;;;;;;;8.10;98.80;;;;;;5074458;28;20007;-78
2021/03/27 03:57:20;;;;;;;;;;;8.00;98.80;;;;;;5073945;28;19916;-78
2021/03/27 03:59:50;;;;;;;;;;;8.00;98.30;;;;;;5074732;28;19920;-77
2021/03/27 04:02:32;;;;;;;;;;;7.90;96.40;;;;;;5075451;28;19922;-79
2021/03/27 04:05:12;;;;;;;;;;;7.80;95.10;;;;;;5089021;27;19920;-78
2021/03/27 04:07:42;;;;;;;;;;;7.70;95.20;;;;;;5063351;28;19924;-78
2021/03/27 04:10:22;;;;;;;;;;;7.60;95.10;;;;;;5077799;28;20015;-78
2021/03/27 04:12:48;;;;;;;;;;;7.60;95.00;;;;;;5075421;28;19973;-78
2021/03/27 04:15:20;;;;;;;;;;;7.50;94.90;;;;;;5073821;28;19934;-78
2021/03/27 04:18:04;;;;;;;;;;;7.40;95.10;;;;;;5075846;28;19920;-79
2021/03/27 04:20:38;;;;;;;;;;;7.30;95.80;;;;;;5085970;28;19919;-78
2021/03/27 04:23:14;;;;;;;;;;;7.20;95.50;;;;;;5074759;28;20448;-78
2021/03/27 04:25:42;;;;;;;;;;;7.30;95.70;;;;;;5076009;28;19930;-78
2021/03/27 04:28:16;;;;;;;;;;;7.30;95.40;;;;;;5076267;28;19921;-78
2021/03/27 04:30:47;;;;;;;;;;;7.20;95.30;;;;;;5075987;28;19977;-78
2021/03/27 04:33:19;;;;;;;;;;;7.20;95.20;;;;;;5074384;28;19931;-77
2021/03/27 04:35:46;;;;;;;;;;;7.10;95.20;;;;;;5076258;28;20013;-77
2021/03/27 04:38:12;;;;;;;;;;;7.10;94.40;;;;;;5075300;28;19927;-79
2021/03/27 04:40:41;;;;;;;;;;;7.10;94.20;;;;;;5091123;28;19916;-80
2021/03/27 04:43:13;;;;;;;;;;;7.10;94.30;;;;;;5074366;28;19951;-79
2021/03/27 04:45:58;;;;;;;;;;;7.10;94.50;;;;;;5076373;28;20397;-76
2021/03/27 04:48:25;;;;;;;;;;;7.00;94.20;;;;;;5074949;28;20459;-79
2021/03/27 04:50:54;;;;;;;;;;;7.00;94.50;;;;;;5085980;28;19945;-76
2021/03/27 04:53:20;;;;;;;;;;;7.00;94.60;;;;;;5107913;27;20451;-79
2021/03/27 04:55:51;;;;;;;;;;;7.10;94.20;;;;;;5073945;28;19932;-79
2021/03/27 04:58:20;;;;;;;;;;;7.10;94.00;;;;;;5085766;28;20354;-79
2021/03/27 05:01:24;;;;;;;;;;;7.10;94.90;;;;;;5074777;28;19919;-79
2021/03/27 05:04:03;;;;;;;;;;;7.00;94.90;;;;;;5038899;28;19921;-79
2021/03/27 05:06:34;;;;;;;;;;;7.00;96.30;;;;;;5038154;28;19929;-76
2021/03/27 05:09:08;;;;;;;;;;;7.00;97.10;;;;;;5032085;28;19912;-77
2021/03/27 05:11:53;;;;;;;;;;;7.00;98.70;;;;;;5050715;28;19920;-77
2021/03/27 05:14:27;;;;;;;;;;;6.90;97.50;;;;;;5048840;28;19923;-77
2021/03/27 05:17:13;;;;;;;;;;;6.90;97.20;;;;;;5035590;28;19932;-79
2021/03/27 05:19:41;;;;;;;;;;;6.90;97.50;;;;;;5040614;28;19951;-80
2021/03/27 05:22:13;;;;;;;;;;;6.90;96.90;;;;;;5043134;28;19917;-77
2021/03/27 05:24:57;;;;;;;;;;;7.00;95.10;;;;;;5021080;28;20370;-79
2021/03/27 05:27:26;;;;;;;;;;;7.00;94.70;;;;;;5043366;28;19966;-79
2021/03/27 05:29:58;;;;;;;;;;;7.00;95.10;;;;;;5028314;28;19956;-79
2021/03/27 05:32:42;;;;;;;;;;;6.90;94.00;;;;;;5043842;28;19921;-79
2021/03/27 05:35:17;;;;;;;;;;;6.90;94.10;;;;;;5066772;28;19959;-79
2021/03/27 05:37:42;;;;;;;;;;;6.80;93.90;;;;;;5077334;28;19927;-79
2021/03/27 05:40:17;;;;;;;;;;;6.80;93.70;;;;;;5078117;28;20261;-79
2021/03/27 05:42:48;;;;;;;;;;;6.90;93.70;;;;;;5077563;28;19977;-78
2021/03/27 05:45:26;;;;;;;;;;;6.80;94.20;;;;;;5076722;28;20056;-76
2021/03/27 05:48:12;;;;;;;;;;;6.70;94.10;;;;;;5077620;28;19930;-76
2021/03/27 05:50:37;;;;;;;;;;;6.60;93.80;;;;;;5077515;28;20001;-76
2021/03/27 05:53:18;;;;;;;;;;;6.60;93.50;;;;;;5099905;28;19916;-76
2021/03/27 05:55:57;;;;;;;;;;;6.60;94.70;;;;;;5082893;28;20118;-79
2021/03/27 05:58:23;;;;;;;;;;;6.60;95.40;;;;;;5076946;28;19949;-79
2021/03/27 06:00:58;;;;;;;;;;;6.60;95.40;;;;;;5077176;28;20413;-79
2021/03/27 06:03:42;;;;;;;;;;;6.50;94.70;;;;;;5093600;27;19920;-79
2021/03/27 06:06:26;;;;;;;;;;;6.50;93.50;;;;;;5076627;28;20361;-79
2021/03/27 06:09:10;;;;;;;;;;;6.40;92.60;;;;;;5076176;28;20304;-77
2021/03/27 06:11:55;;;;;;;;;;;6.30;92.40;;;;;;5095840;28;19988;-79
2021/03/27 06:14:20;;;;;;;;;;;6.10;92.00;;;;;;5100117;27;19920;-79
2021/03/27 06:16:46;;;;;;;;;;;6.10;92.20;;;;;;5076463;28;19920;-79
2021/03/27 06:19:30;;;;;;;;;;;6.10;92.10;;;;;;5092269;27;19990;-79
2021/03/27 06:22:17;;;;;;;;;;;6.10;92.00;;;;;;5079054;28;19926;-77
2021/03/27 06:24:54;;;;;;;;;;;6.10;92.60;;;;;;5090654;28;19912;-78
2021/03/27 06:27:26;;;;;;;;;;;6.00;91.80;;;;;;5084204;28;19920;-79
2021/03/27 06:30:11;;;;;;;;;;;6.10;91.90;;;;;;5061961;28;19917;-76
2021/03/27 06:32:54;;;;;;;;;;;6.10;91.50;;;;;;5075596;28;19920;-76
2021/03/27 06:35:41;;;;;;;;;;;6.10;92.70;;;;;;5076691;28;20042;-77
2021/03/27 06:38:22;;;;;;;;;;;6.20;91.60;;;;;;5076001;28;19920;-76
2021/03/27 06:41:06;;;;;;;;;;;6.30;91.20;;;;;;5077106;28;19990;-77
2021/03/27 06:43:51;;;;;;;;;;;6.30;92.20;;;;;;5091682;27;19916;-76
2021/03/27 06:46:20;;;;;;;;;;;6.40;91.30;;;;;;5091229;27;20002;-75
2021/03/27 06:49:18;;;;;;;;;;;6.40;90.50;;;;;;5076195;28;20019;-76
2021/03/27 06:52:09;;;;;;;;;;;6.50;89.80;;;;;;5055410;28;19955;-76
2021/03/27 06:54:49;;;;;;;;;;;6.50;90.20;;;;;;5073916;28;19916;-76
2021/03/27 06:57:37;;;;;;;;;;;6.50;90.10;;;;;;5074930;28;19926;-76
2021/03/27 07:00:21;;;;;;;;;;;6.60;90.00;;;;;;5091457;27;20074;-77
2021/03/27 07:02:47;;;;;;;;;;;6.60;88.90;;;;;;5076335;28;20003;-77
2021/03/27 07:05:22;;;;;;;;;;;6.60;89.80;;;;;;5076681;28;21848;-76
2021/03/27 07:08:02;;;;;;;;;;;6.60;88.40;;;;;;5076907;28;20353;-76
2021/03/27 07:10:34;;;;;;;;;;;6.60;90.00;;;;;;5078581;28;19920;-77
2021/03/27 07:13:14;;;;;;;;;;;6.70;88.20;;;;;;5089979;28;19911;-77
2021/03/27 07:15:46;;;;;;;;;;;6.70;88.20;;;;;;5092731;28;19920;-77
2021/03/27 07:18:14;;;;;;;;;;;6.80;89.50;;;;;;5099975;27;19946;-77
2021/03/27 07:20:40;;;;;;;;;;;6.80;89.20;;;;;;5075803;28;20331;-80
2021/03/27 07:23:09;;;;;;;;;;;6.90;90.00;;;;;;5078270;28;19932;-80
2021/03/27 07:25:37;;;;;;;;;;;6.90;89.60;;;;;;5074335;28;19919;-77
2021/03/27 07:28:20;;;;;;;;;;;7.00;84.20;;;;;;5075773;28;19920;-77
2021/03/27 07:31:04;;;;;;;;;;;7.00;85.70;;;;;;5075815;28;19920;-77
2021/03/27 07:33:30;;;;;;;;;;;7.10;86.30;;;;;;5075868;28;20349;-78
2021/03/27 07:36:14;;;;;;;;;;;7.20;84.90;;;;;;5075791;28;19920;-77
2021/03/27 07:38:40;;;;;;;;;;;7.20;85.70;;;;;;5075449;28;19920;-78
2021/03/27 07:41:24;;;;;;;;;;;7.30;87.90;;;;;;5075532;28;19921;-78
2021/03/27 07:43:52;;;;;;;;;;;7.30;87.40;;;;;;5107019;27;19920;-78
2021/03/27 07:46:33;;;;;;;;;;;7.40;85.80;;;;;;5085874;28;19935;-78
2021/03/27 07:49:37;;;;;;;;;;;7.50;84.00;;;;;;5090907;28;19920;-78
2021/03/27 07:52:21;;;;;;;;;;;7.50;83.50;;;;;;5047934;28;19932;-78
2021/03/27 07:55:08;;;;;;;;;;;7.60;84.70;;;;;;5024312;28;19952;-78
2021/03/27 07:57:52;;;;;;;;;;;7.60;87.10;;;;;;5036699;28;19917;-76
2021/03/27 08:00:23;;;;;;;;;;;7.70;84.90;;;;;;5037398;28;19951;-78
2021/03/27 08:02:48;;;;;;;;;;;7.70;83.00;;;;;;5036229;28;20055;-78
2021/03/27 08:05:26;;;;;;;;;;;7.70;82.10;;;;;;5037180;28;19924;-76
2021/03/27 08:08:03;;;;;;;;;;;7.70;83.60;;;;;;5052548;28;20372;-84
2021/03/27 08:10:47;;;;;;;;;;;7.70;81.50;;;;;;5046414;28;19921;-87
2021/03/27 08:13:24;;;;;;;;;;;7.70;83.10;;;;;;5021824;28;20294;-76
2021/03/27 08:15:53;;;;;;;;;;;7.80;84.80;;;;;;5037556;28;20407;-77
2021/03/27 08:18:37;;;;;;;;;;;7.70;80.90;;;;;;5036972;28;19917;-76
2021/03/27 08:21:07;;;;;;;;;;;7.70;81.20;;;;;;5035928;28;19921;-79
2021/03/27 08:23:33;;;;;;;;;;;7.70;81.70;;;;;;5065498;28;19920;-76
2021/03/27 08:26:04;;;;;;;;;;;7.70;81.20;;;;;;5075585;28;19927;-78
2021/03/27 08:28:38;;;;;;;;;;;7.70;80.20;;;;;;5074644;28;20021;-78
2021/03/27 08:31:15;;;;;;;;;;;7.80;80.10;;;;;;5075075;28;19973;-77
2021/03/27 08:34:01;;;;;;;;;;;7.90;77.30;;;;;;5075367;28;19916;-77
2021/03/27 08:36:27;;;;;;;;;;;7.90;75.00;;;;;;5085664;28;19998;-77
2021/03/27 08:39:11;;;;;;;;;;;8.00;78.00;;;;;;5074675;28;20326;-85
2021/03/27 08:41:49;;;;;;;;;;;8.00;76.00;;;;;;5075635;28;19949;-85
2021/03/27 08:44:39;;;;;;;;;;;8.00;74.10;;;;;;5076203;28;19920;-77
2021/03/27 08:47:16;;;;;;;;;;;8.00;74.60;;;;;;5073376;28;20631;-79
2021/03/27 08:49:47;;;;;;;;;;;8.10;73.40;;;;;;5079345;28;19916;-78
2021/03/27 08:52:32;;;;;;;;;;;8.20;74.20;;;;;;5092588;28;19923;-78
2021/03/27 08:55:16;;;;;;;;;;;8.20;71.80;;;;;;5088954;28;19921;-77
2021/03/27 08:57:44;;;;;;;;;;;8.30;72.10;;;;;;5078615;28;19920;-79
2021/03/27 09:00:29;;;;;;;;;;;8.30;71.40;;;;;;5089006;28;19916;-79
2021/03/27 09:03:06;;;;;;;;;;;8.30;70.40;;;;;;5092722;28;19939;-79
2021/03/27 09:05:34;;;;;;;;;;;8.40;72.70;;;;;;5077651;28;20358;-78
2021/03/27 09:08:18;;;;;;;;;;;8.50;72.50;;;;;;5078006;28;19920;-79
2021/03/27 09:10:46;;;;;;;;;;;8.40;70.00;;;;;;5077454;28;19923;-79
2021/03/27 09:13:30;;;;;;;;;;;8.40;68.90;;;;;;5082355;28;20373;-78
2021/03/27 09:16:14;;;;;;;;;;;8.40;69.90;;;;;;5078756;28;19915;-79
2021/03/27 09:18:59;;;;;;;;;;;8.50;69.80;;;;;;4388427;27;9999982;-80
2021/03/27 09:21:26;;;;;;;;;;;8.60;72.00;;;;;;5079280;28;19950;-80
2021/03/27 09:24:01;;;;;;;;;;;8.70;72.50;;;;;;5083552;28;19920;-77
2021/03/27 09:26:42;;;;;;;;;;;8.80;73.10;;;;;;5085839;27;19932;-79
2021/03/27 09:29:16;;;;;;;;;;;9.00;72.50;;;;;;5090643;28;19919;-81
2021/03/27 09:32:00;;;;;;;;;;;9.10;73.50;;;;;;5089675;28;20034;-75
2021/03/27 09:34:38;;;;;;;;;;;9.10;70.90;;;;;;5077081;28;19920;-79
2021/03/27 09:37:22;;;;;;;;;;;9.20;71.80;;;;;;5093363;27;19920;-79
2021/03/27 09:39:56;;;;;;;;;;;9.20;69.00;;;;;;5076464;28;19953;-80
2021/03/27 09:42:39;;;;;;;;;;;9.30;69.30;;;;;;5088911;28;19926;-78
2021/03/27 09:45:18;;;;;;;;;;;9.50;69.10;;;;;;5093787;28;19951;-80
2021/03/27 09:47:48;;;;;;;;;;;9.50;67.20;;;;;;5095283;28;19958;-81
2021/03/27 09:50:19;;;;;;;;;;;9.50;69.90;;;;;;5093950;28;20373;-80
2021/03/27 09:52:45;;;;;;;;;;;9.50;68.70;;;;;;5076956;28;19992;-80
2021/03/27 09:55:29;;;;;;;;;;;9.60;69.00;;;;;;5083475;28;19920;-80
2021/03/27 09:58:12;;;;;;;;;;;9.60;70.30;;;;;;5076494;28;20019;-80
2021/03/27 10:00:40;;;;;;;;;;;9.50;70.10;;;;;;5074058;28;19920;-80
2021/03/27 10:03:13;;;;;;;;;;;9.30;76.30;;;;;;5075692;28;19928;-81
2021/03/27 10:05:55;;;;;;;;;;;8.80;82.80;;;;;;5092568;27;19939;-82
2021/03/27 10:08:25;;;;;;;;;;;8.60;87.30;;;;;;5069996;28;19927;-81
2021/03/27 10:10:59;;;;;;;;;;;8.30;90.00;;;;;;5087828;28;20006;-81
2021/03/27 10:13:44;;;;;;;;;;;8.20;89.20;;;;;;5092938;27;19920;-80
2021/03/27 10:16:11;;;;;;;;;;;8.00;90.00;;;;;;5089222;28;19912;-79
2021/03/27 10:18:36;;;;;;;;;;;7.70;87.00;;;;;;5088069;28;19981;-81
2021/03/27 10:21:18;;;;;;;;;;;7.80;90.00;;;;;;5091208;28;20292;-82
2021/03/27 10:23:54;;;;;;;;;;;7.90;91.80;;;;;;5069731;28;19920;-80
2021/03/27 10:26:25;;;;;;;;;;;8.10;88.80;;;;;;5075561;28;20010;-80
2021/03/27 10:29:02;;;;;;;;;;;8.20;84.70;;;;;;5092567;27;19920;-78
2021/03/27 10:31:29;;;;;;;;;;;8.30;83.40;;;;;;5075121;28;19999;-80
2021/03/27 10:33:57;;;;;;;;;;;8.50;77.20;;;;;;5086384;28;19916;-80
2021/03/27 10:36:44;;;;;;;;;;;8.50;77.00;;;;;;5076800;28;20009;-82
2021/03/27 10:39:12;;;;;;;;;;;8.60;77.00;;;;;;5107584;27;19925;-80
2021/03/27 10:41:40;;;;;;;;;;;8.70;77.10;;;;;;5080026;28;20379;-80
2021/03/27 10:44:10;;;;;;;;;;;8.80;75.50;;;;;;5078499;28;19927;-77
2021/03/27 10:46:38;;;;;;;;;;;8.90;75.60;;;;;;5075173;28;20315;-78
2021/03/27 10:49:10;;;;;;;;;;;9.10;80.20;;;;;;5093230;28;19922;-80
2021/03/27 10:51:35;;;;;;;;;;;9.20;81.80;;;;;;5087190;28;19920;-81
2021/03/27 10:54:21;;;;;;;;;;;9.20;76.00;;;;;;5091263;28;20364;-80
2021/03/27 10:56:50;;;;;;;;;;;9.20;75.40;;;;;;5088308;28;20252;-80
2021/03/27 10:59:28;;;;;;;;;;;9.10;77.30;;;;;;5092168;27;19916;-80
2021/03/27 11:01:53;;;;;;;;;;;9.20;77.00;;;;;;5086420;28;19930;-80
2021/03/27 11:04:32;;;;;;;;;;;9.10;78.00;;;;;;5075246;28;19916;-80
2021/03/27 11:07:18;;;;;;;;;;;9.10;78.00;;;;;;5087415;28;19928;-80
2021/03/27 11:10:04;;;;;;;;;;;9.00;74.20;;;;;;5066176;28;19917;-78
2021/03/27 11:12:48;;;;;;;;;;;8.90;72.40;;;;;;5076325;28;20483;-81
2021/03/27 11:15:17;;;;;;;;;;;8.90;72.70;;;;;;5077137;28;19917;-80
2021/03/27 11:18:01;;;;;;;;;;;9.00;71.30;;;;;;5076849;28;19931;-80
2021/03/27 11:20:42;;;;;;;;;;;8.90;70.20;;;;;;5076320;28;20058;-80
2021/03/27 11:23:19;;;;;;;;;;;9.00;70.40;;;;;;5074746;28;19916;-80
2021/03/27 11:26:00;;;;;;;;;;;9.00;70.70;;;;;;5075576;28;21855;-80
2021/03/27 11:28:51;;;;;;;;;;;9.00;71.30;;;;;;5075614;28;19940;-82
2021/03/27 11:31:26;;;;;;;;;;;9.00;68.60;;;;;;5073978;28;19999;-81
2021/03/27 11:33:54;;;;;;;;;;;9.10;70.20;;;;;;5076291;28;19981;-80
2021/03/27 11:36:26;;;;;;;;;;;9.10;70.30;;;;;;5074245;28;19928;-80
2021/03/27 11:38:55;;;;;;;;;;;9.20;68.70;;;;;;5074566;28;19920;-81
2021/03/27 11:41:22;;;;;;;;;;;9.20;66.60;;;;;;5076796;28;19921;-81
2021/03/27 11:44:00;;;;;;;;;;;9.20;67.50;;;;;;5088442;28;19982;-77
2021/03/27 11:46:30;;;;;;;;;;;9.10;66.10;;;;;;5093385;28;20187;-80
2021/03/27 11:49:02;;;;;;;;;;;9.10;66.10;;;;;;5089518;28;19923;-80
2021/03/27 11:51:29;;;;;;;;;;;9.10;67.00;;;;;;5107315;27;20218;-80
2021/03/27 11:54:03;;;;;;;;;;;9.10;64.00;;;;;;5073708;28;19916;-80
2021/03/27 11:56:41;;;;;;;;;;;9.20;66.10;;;;;;5109393;27;19920;-81
2021/03/27 12:02:06;;;;;;;;;;;9.30;64.20;;;;;;5058590;28;19925;-79
2021/03/27 12:04:32;;;;;;;;;;;9.20;63.80;;;;;;5093334;28;19920;-79
2021/03/27 12:06:57;;;;;;;;;;;9.30;65.30;;;;;;5093738;28;19939;-80
2021/03/27 12:09:41;;;;;;;;;;;9.20;65.90;;;;;;5091829;28;19941;-80
2021/03/27 12:12:09;;;;;;;;;;;9.20;66.70;;;;;;5088534;28;19977;-80
2021/03/27 12:14:50;;;;;;;;;;;9.10;68.60;;;;;;5094728;28;20334;-80
2021/03/27 12:17:31;;;;;;;;;;;9.10;69.00;;;;;;5091193;28;19917;-80
2021/03/27 12:19:56;;;;;;;;;;;9.00;68.30;;;;;;5091655;28;19924;-79
2021/03/27 12:22:22;;;;;;;;;;;8.90;67.80;;;;;;5089205;28;19970;-80
2021/03/27 12:24:57;;;;;;;;;;;9.00;70.60;;;;;;5092507;28;19911;-79
2021/03/27 12:27:27;;;;;;;;;;;9.00;68.50;;;;;;5091538;28;19919;-80
2021/03/27 12:29:57;;;;;;;;;;;9.10;67.00;;;;;;5112699;27;19916;-80
2021/03/27 12:32:29;;;;;;;;;;;9.30;68.40;;;;;;5094542;28;19917;-80
2021/03/27 12:34:54;;;;;;;;;;;9.30;65.60;;;;;;5094024;28;19912;-80
2021/03/27 12:37:40;;;;;;;;;;;9.50;68.60;;;;;;5095166;28;20257;-80
2021/03/27 12:40:21;;;;;;;;;;;9.60;66.30;;;;;;5082802;28;20337;-80
2021/03/27 12:42:47;;;;;;;;;;;9.70;64.40;;;;;;5088981;28;19920;-80
2021/03/27 12:45:23;;;;;;;;;;;9.80;66.70;;;;;;5094719;28;19916;-79
2021/03/27 12:48:05;;;;;;;;;;;9.80;65.90;;;;;;5091228;28;19956;-80
2021/03/27 12:50:51;;;;;;;;;;;9.90;68.00;;;;;;5092417;28;19912;-79
2021/03/27 12:53:21;;;;;;;;;;;10.00;67.30;;;;;;5072020;28;19935;-79
2021/03/27 12:56:05;;;;;;;;;;;9.90;66.40;;;;;;5092446;28;19965;-79
2021/03/27 12:58:49;;;;;;;;;;;9.90;66.80;;;;;;5091694;28;20015;-80
2021/03/27 13:01:15;;;;;;;;;;;9.90;66.70;;;;;;5092234;28;19932;-79
2021/03/27 13:03:59;;;;;;;;;;;9.90;66.20;;;;;;5092452;28;19920;-79
2021/03/27 13:06:35;;;;;;;;;;;9.90;65.70;;;;;;5092598;28;20276;-78
2021/03/27 13:09:10;;;;;;;;;;;9.80;64.80;;;;;;5104268;28;20391;-80
2021/03/27 13:11:54;;;;;;;;;;;9.80;66.10;;;;;;5094284;28;19919;-80
2021/03/27 13:14:41;;;;;;;;;;;9.70;66.80;;;;;;5091832;28;19912;-80
2021/03/27 13:17:27;;;;;;;;;;;9.70;67.40;;;;;;5091891;28;19916;-81
2021/03/27 13:20:02;;;;;;;;;;;9.60;70.20;;;;;;5092484;28;19920;-83
2021/03/27 13:22:36;;;;;;;;;;;9.30;75.60;;;;;;5106629;28;19943;-82
2021/03/27 13:25:01;;;;;;;;;;;8.80;81.00;;;;;;5097164;28;19919;-82
2021/03/27 13:27:29;;;;;;;;;;;8.30;88.00;;;;;;5092625;28;19920;-81
2021/03/27 13:30:09;;;;;;;;;;;8.00;89.70;;;;;;5093120;28;20011;-81
2021/03/27 13:32:37;;;;;;;;;;;7.60;91.70;;;;;;5078503;28;19922;-82
2021/03/27 13:35:08;;;;;;;;;;;7.10;99.90;;;;;;5091407;28;19924;-84
2021/03/27 13:37:43;;;;;;;;;;;7.00;99.90;;;;;;5089782;28;20048;-84
2021/03/27 13:40:17;;;;;;;;;;;6.90;99.90;;;;;;5096928;28;19916;-83
2021/03/27 13:42:49;;;;;;;;;;;6.90;99.90;;;;;;5096260;28;19920;-83
2021/03/27 13:45:29;;;;;;;;;;;6.80;99.90;;;;;;5091612;28;19911;-83
2021/03/27 13:48:04;;;;;;;;;;;6.80;99.90;;;;;;5097060;28;19923;-85
2021/03/27 13:50:48;;;;;;;;;;;6.80;99.90;;;;;;5126008;27;19912;-83
2021/03/27 13:53:16;;;;;;;;;;;6.90;99.90;;;;;;5095327;28;19955;-85
2021/03/27 13:55:51;;;;;;;;;;;6.90;99.90;;;;;;5109565;27;19934;-86
2021/03/27 13:58:20;;;;;;;;;;;7.00;99.90;;;;;;5092501;28;19920;-85
2021/03/27 14:00:53;;;;;;;;;;;7.00;99.90;;;;;;5097967;28;19920;-85
2021/03/27 14:03:19;;;;;;;;;;;7.00;99.90;;;;;;5102736;28;19926;-84
2021/03/27 14:05:45;;;;;;;;;;;7.00;99.90;;;;;;5098728;28;19995;-85
2021/03/27 14:08:17;;;;;;;;;;;7.00;99.90;;;;;;5094383;28;19950;-83
2021/03/27 14:10:55;;;;;;;;;;;7.00;99.90;;;;;;5098623;28;20295;-84
2021/03/27 14:13:29;;;;;;;;;;;7.00;99.90;;;;;;5092734;28;19923;-85
2021/03/27 14:15:55;;;;;;;;;;;7.10;99.90;;;;;;5094965;28;20002;-86
2021/03/27 14:18:32;;;;;;;;;;;7.20;99.90;;;;;;5099888;28;20050;-86
2021/03/27 14:20:57;;;;;;;;;;;7.20;99.50;;;;;;5093079;28;19927;-86
2021/03/27 14:23:59;;;;;;;;;;;7.30;95.40;;;;;;5095114;28;19912;-87
2021/03/27 14:26:35;;;;;;;;;;;7.30;97.30;;;;;;5073914;28;19931;-83
2021/03/27 14:29:07;;;;;;;;;;;7.60;94.90;;;;;;5094608;28;19915;-83
2021/03/27 14:31:38;;;;;;;;;;;7.80;95.20;;;;;;5089440;28;19948;-85
2021/03/27 14:34:20;;;;;;;;;;;7.80;90.90;;;;;;5091145;28;19920;-87
2021/03/27 14:37:05;;;;;;;;;;;8.10;92.30;;;;;;5096120;28;19927;-80
2021/03/27 14:39:36;;;;;;;;;;;8.10;87.70;;;;;;5093880;28;19948;-81
2021/03/27 14:42:05;;;;;;;;;;;8.30;90.30;;;;;;4739875;27;10000537;-82
2021/03/27 14:44:39;;;;;;;;;;;8.40;86.50;;;;;;5090256;28;19926;-82
2021/03/27 14:47:13;;;;;;;;;;;8.50;85.20;;;;;;5088438;28;19949;-79
2021/03/27 14:49:41;;;;;;;;;;;8.50;81.10;;;;;;5106546;27;20289;-79
2021/03/27 14:52:09;;;;;;;;;;;8.40;83.40;;;;;;5087127;28;20249;-81
2021/03/27 14:54:37;;;;;;;;;;;8.50;85.20;;;;;;5091730;28;19920;-78
2021/03/27 14:57:04;;;;;;;;;;;8.60;84.50;;;;;;5086925;28;19949;-79
2021/03/27 14:59:31;;;;;;;;;;;8.50;80.20;;;;;;5083358;28;19916;-79
2021/03/27 15:02:06;;;;;;;;;;;8.60;84.40;;;;;;5076887;28;19955;-80
2021/03/27 15:04:33;;;;;;;;;;;8.50;79.50;;;;;;5083828;28;20727;-80
2021/03/27 15:07:17;;;;;;;;;;;8.40;82.40;;;;;;5082797;28;19985;-77
2021/03/27 15:10:01;;;;;;;;;;;8.30;80.30;;;;;;5087315;28;20410;-76
2021/03/27 15:12:32;;;;;;;;;;;8.20;79.10;;;;;;5092948;28;19921;-79
2021/03/27 15:14:59;;;;;;;;;;;8.10;79.30;;;;;;5090423;28;20128;-79
2021/03/27 15:17:34;;;;;;;;;;;8.20;82.70;;;;;;5122765;27;19924;-79